sensor_id;sensor_type;location;lat;lon;timestamp;P1;durP1;ratioP1;P2;durP2;ratioP2
61739;SDS011;47645;45.288;12.038;2022-10-18T00:00:23;36.6;;;24.3;;
61739;SDS011;47645;45.288;12.038;2022-10-18T00:10:24;47.0;;;29.1;;
61739;SDS011;47645;45.288;12.038;2022-10-18T00:20:25;26.6;;;18.4;;
61739;SDS011;47645;45.288;12.038;2022-10-18T00:30:26;56.3;;;33.8;;
61739;SDS011;47645;45.288;12.038;2022-10-18T00:40:27;48.2;;;29.0;;
61739;SDS011;47645;45.288;12.038;2022-10-18T00:50:32;47.0;;;30.0;;
61739;SDS011;47645;45.288;12.038;2022-10-18T01:00:29;30.1;;;19.6;;
61739;SDS011;47645;45.288;12.038;2022-10-18T01:10:30;48.3;;;28.3;;
61739;SDS011;47645;45.288;12.038;2022-10-18T01:20:37;42.4;;;27.7;;
61739;SDS011;47645;45.288;12.038;2022-10-18T01:30:33;38.7;;;24.3;;
61739;SDS011;47645;45.288;12.038;2022-10-18T01:40:32;29.3;;;19.6;;
61739;SDS011;47645;45.288;12.038;2022-10-18T01:50:33;24.0;;;16.8;;
61739;SDS011;47645;45.288;12.038;2022-10-18T02:00:35;21.0;;;14.2;;
61739;SDS011;47645;45.288;12.038;2022-10-18T02:10:35;24.7;;;16.9;;
61739;SDS011;47645;45.288;12.038;2022-10-18T02:20:35;28.7;;;19.1;;
61739;SDS011;47645;45.288;12.038;2022-10-18T02:30:37;36.7;;;23.6;;
61739;SDS011;47645;45.288;12.038;2022-10-18T02:40:37;22.1;;;15.1;;
61739;SDS011;47645;45.288;12.038;2022-10-18T02:50:38;23.3;;;14.9;;
61739;SDS011;47645;45.288;12.038;2022-10-18T03:00:39;23.6;;;15.6;;
61739;SDS011;47645;45.288;12.038;2022-10-18T03:10:39;22.7;;;15.4;;
61739;SDS011;47645;45.288;12.038;2022-10-18T03:20:40;19.1;;;13.0;;
61739;SDS011;47645;45.288;12.038;2022-10-18T03:30:41;23.0;;;14.5;;
61739;SDS011;47645;45.288;12.038;2022-10-18T03:40:42;38.4;;;24.1;;
61739;SDS011;47645;45.288;12.038;2022-10-18T03:50:42;23.7;;;15.2;;
61739;SDS011;47645;45.288;12.038;2022-10-18T04:00:44;24.6;;;16.3;;
61739;SDS011;47645;45.288;12.038;2022-10-18T04:10:44;25.5;;;15.8;;
61739;SDS011;47645;45.288;12.038;2022-10-18T04:20:45;19.8;;;13.7;;
61739;SDS011;47645;45.288;12.038;2022-10-18T04:30:48;24.8;;;14.1;;
61739;SDS011;47645;45.288;12.038;2022-10-18T04:40:47;22.3;;;14.5;;
61739;SDS011;47645;45.288;12.038;2022-10-18T04:50:47;22.2;;;14.1;;
61739;SDS011;47645;45.288;12.038;2022-10-18T05:00:48;24.4;;;15.8;;
61739;SDS011;47645;45.288;12.038;2022-10-18T05:10:49;21.5;;;14.2;;
61739;SDS011;47645;45.288;12.038;2022-10-18T05:20:50;17.7;;;12.4;;
61739;SDS011;47645;45.288;12.038;2022-10-18T05:30:50;21.7;;;13.9;;
61739;SDS011;47645;45.288;12.038;2022-10-18T05:40:52;25.0;;;13.3;;
61739;SDS011;47645;45.288;12.038;2022-10-18T05:50:52;17.5;;;12.0;;
61739;SDS011;47645;45.288;12.038;2022-10-18T06:00:53;23.1;;;14.5;;
61739;SDS011;47645;45.288;12.038;2022-10-18T06:10:54;64.5;;;34.0;;
61739;SDS011;47645;45.288;12.038;2022-10-18T06:20:55;28.5;;;17.4;;
61739;SDS011;47645;45.288;12.038;2022-10-18T06:30:55;44.4;;;26.0;;
61739;SDS011;47645;45.288;12.038;2022-10-18T06:40:56;47.2;;;24.9;;
61739;SDS011;47645;45.288;12.038;2022-10-18T06:50:57;35.4;;;18.4;;
61739;SDS011;47645;45.288;12.038;2022-10-18T07:00:58;28.5;;;19.4;;
61739;SDS011;47645;45.288;12.038;2022-10-18T07:10:58;32.7;;;21.1;;
61739;SDS011;47645;45.288;12.038;2022-10-18T07:21:00;42.6;;;27.2;;
61739;SDS011;47645;45.288;12.038;2022-10-18T07:31:03;41.2;;;24.9;;
61739;SDS011;47645;45.288;12.038;2022-10-18T07:41:02;39.7;;;25.2;;
61739;SDS011;47645;45.288;12.038;2022-10-18T07:51:02;58.7;;;33.7;;
61739;SDS011;47645;45.288;12.038;2022-10-18T08:01:03;57.4;;;33.8;;
61739;SDS011;47645;45.288;12.038;2022-10-18T08:11:04;64.1;;;38.7;;
61739;SDS011;47645;45.288;12.038;2022-10-18T08:21:05;65.4;;;38.4;;
61739;SDS011;47645;45.288;12.038;2022-10-18T08:31:05;59.2;;;34.7;;
61739;SDS011;47645;45.288;12.038;2022-10-18T08:41:18;56.8;;;35.2;;
61739;SDS011;47645;45.288;12.038;2022-10-18T08:51:10;56.3;;;32.4;;
61739;SDS011;47645;45.288;12.038;2022-10-18T09:01:14;48.4;;;31.8;;
61739;SDS011;47645;45.288;12.038;2022-10-18T09:11:12;46.1;;;29.2;;
61739;SDS011;47645;45.288;12.038;2022-10-18T09:21:13;44.0;;;28.6;;
61739;SDS011;47645;45.288;12.038;2022-10-18T09:31:12;43.3;;;28.2;;
61739;SDS011;47645;45.288;12.038;2022-10-18T09:41:13;42.3;;;28.4;;
61739;SDS011;47645;45.288;12.038;2022-10-18T09:51:15;41.5;;;27.7;;
61739;SDS011;47645;45.288;12.038;2022-10-18T10:01:15;39.5;;;25.9;;
61739;SDS011;47645;45.288;12.038;2022-10-18T10:11:32;38.8;;;24.8;;
61739;SDS011;47645;45.288;12.038;2022-10-18T10:21:16;36.7;;;25.1;;
61739;SDS011;47645;45.288;12.038;2022-10-18T10:31:20;34.5;;;23.6;;
61739;SDS011;47645;45.288;12.038;2022-10-18T10:41:19;35.5;;;25.1;;
61739;SDS011;47645;45.288;12.038;2022-10-18T10:51:26;36.5;;;26.2;;
61739;SDS011;47645;45.288;12.038;2022-10-18T11:01:24;38.2;;;25.4;;
61739;SDS011;47645;45.288;12.038;2022-10-18T11:11:26;37.4;;;26.3;;
61739;SDS011;47645;45.288;12.038;2022-10-18T11:21:24;38.5;;;26.7;;
61739;SDS011;47645;45.288;12.038;2022-10-18T11:31:26;37.5;;;27.0;;
61739;SDS011;47645;45.288;12.038;2022-10-18T11:41:29;42.2;;;27.5;;
61739;SDS011;47645;45.288;12.038;2022-10-18T11:51:32;49.0;;;32.0;;
61739;SDS011;47645;45.288;12.038;2022-10-18T12:01:33;49.0;;;31.0;;
61739;SDS011;47645;45.288;12.038;2022-10-18T12:11:31;51.1;;;34.2;;
61739;SDS011;47645;45.288;12.038;2022-10-18T12:21:33;53.5;;;36.2;;
61739;SDS011;47645;45.288;12.038;2022-10-18T12:31:39;46.3;;;32.0;;
61739;SDS011;47645;45.288;12.038;2022-10-18T12:41:35;42.3;;;29.3;;
61739;SDS011;47645;45.288;12.038;2022-10-18T12:51:39;44.0;;;29.0;;
61739;SDS011;47645;45.288;12.038;2022-10-18T13:01:57;45.3;;;30.8;;
61739;SDS011;47645;45.288;12.038;2022-10-18T13:11:39;49.3;;;32.6;;
61739;SDS011;47645;45.288;12.038;2022-10-18T13:21:42;45.1;;;29.6;;
61739;SDS011;47645;45.288;12.038;2022-10-18T13:31:44;41.8;;;27.7;;
61739;SDS011;47645;45.288;12.038;2022-10-18T13:42:48;51.6;;;34.0;;
61739;SDS011;47645;45.288;12.038;2022-10-18T13:51:48;44.1;;;27.9;;
61739;SDS011;47645;45.288;12.038;2022-10-18T14:01:50;46.6;;;31.2;;
61739;SDS011;47645;45.288;12.038;2022-10-18T14:11:48;52.2;;;34.3;;
61739;SDS011;47645;45.288;12.038;2022-10-18T14:21:50;36.6;;;23.9;;
61739;SDS011;47645;45.288;12.038;2022-10-18T14:31:51;35.1;;;24.2;;
61739;SDS011;47645;45.288;12.038;2022-10-18T14:41:53;35.4;;;23.6;;
61739;SDS011;47645;45.288;12.038;2022-10-18T14:51:53;44.7;;;30.1;;
61739;SDS011;47645;45.288;12.038;2022-10-18T15:01:55;38.4;;;26.1;;
61739;SDS011;47645;45.288;12.038;2022-10-18T15:11:57;38.1;;;25.9;;
61739;SDS011;47645;45.288;12.038;2022-10-18T15:21:58;39.2;;;25.0;;
61739;SDS011;47645;45.288;12.038;2022-10-18T15:32:04;33.3;;;21.7;;
61739;SDS011;47645;45.288;12.038;2022-10-18T15:42:00;44.8;;;29.8;;
61739;SDS011;47645;45.288;12.038;2022-10-18T15:52:26;49.7;;;31.2;;
61739;SDS011;47645;45.288;12.038;2022-10-18T16:02:02;48.7;;;31.3;;
61739;SDS011;47645;45.288;12.038;2022-10-18T16:12:03;39.0;;;25.0;;
61739;SDS011;47645;45.288;12.038;2022-10-18T16:22:05;34.9;;;22.6;;
61739;SDS011;47645;45.288;12.038;2022-10-18T16:32:05;28.4;;;19.6;;
61739;SDS011;47645;45.288;12.038;2022-10-18T16:42:07;34.7;;;21.8;;
61739;SDS011;47645;45.288;12.038;2022-10-18T16:52:08;35.0;;;22.3;;
61739;SDS011;47645;45.288;12.038;2022-10-18T17:02:11;45.2;;;27.8;;
61739;SDS011;47645;45.288;12.038;2022-10-18T17:12:10;35.6;;;23.6;;
61739;SDS011;47645;45.288;12.038;2022-10-18T17:22:11;50.5;;;30.0;;
61739;SDS011;47645;45.288;12.038;2022-10-18T17:32:12;67.6;;;39.9;;
61739;SDS011;47645;45.288;12.038;2022-10-18T17:42:13;51.6;;;30.7;;
61739;SDS011;47645;45.288;12.038;2022-10-18T17:52:14;45.2;;;28.1;;
61739;SDS011;47645;45.288;12.038;2022-10-18T18:02:15;46.7;;;28.4;;
61739;SDS011;47645;45.288;12.038;2022-10-18T18:12:16;76.1;;;42.6;;
61739;SDS011;47645;45.288;12.038;2022-10-18T18:22:18;51.5;;;30.9;;
61739;SDS011;47645;45.288;12.038;2022-10-18T18:32:18;51.3;;;29.5;;
61739;SDS011;47645;45.288;12.038;2022-10-18T18:42:22;46.5;;;28.1;;
61739;SDS011;47645;45.288;12.038;2022-10-18T18:52:21;46.7;;;28.2;;
61739;SDS011;47645;45.288;12.038;2022-10-18T19:02:23;41.2;;;25.3;;
61739;SDS011;47645;45.288;12.038;2022-10-18T19:12:23;47.0;;;27.8;;
61739;SDS011;47645;45.288;12.038;2022-10-18T19:22:24;39.6;;;23.8;;
61739;SDS011;47645;45.288;12.038;2022-10-18T19:32:24;40.7;;;24.0;;
61739;SDS011;47645;45.288;12.038;2022-10-18T19:42:26;46.3;;;27.7;;
61739;SDS011;47645;45.288;12.038;2022-10-18T19:52:27;36.6;;;22.9;;
61739;SDS011;47645;45.288;12.038;2022-10-18T20:02:28;55.0;;;31.8;;
61739;SDS011;47645;45.288;12.038;2022-10-18T20:12:28;63.4;;;36.2;;
61739;SDS011;47645;45.288;12.038;2022-10-18T20:22:30;47.3;;;27.8;;
61739;SDS011;47645;45.288;12.038;2022-10-18T20:32:30;45.9;;;26.9;;
61739;SDS011;47645;45.288;12.038;2022-10-18T20:42:33;41.7;;;26.3;;
61739;SDS011;47645;45.288;12.038;2022-10-18T20:52:32;36.5;;;22.3;;
61739;SDS011;47645;45.288;12.038;2022-10-18T21:02:34;38.5;;;22.8;;
61739;SDS011;47645;45.288;12.038;2022-10-18T21:12:34;45.4;;;26.4;;
61739;SDS011;47645;45.288;12.038;2022-10-18T21:22:35;55.4;;;32.9;;
61739;SDS011;47645;45.288;12.038;2022-10-18T21:32:36;46.4;;;27.3;;
61739;SDS011;47645;45.288;12.038;2022-10-18T21:42:37;36.1;;;21.9;;
61739;SDS011;47645;45.288;12.038;2022-10-18T21:52:38;44.1;;;25.6;;
61739;SDS011;47645;45.288;12.038;2022-10-18T22:02:39;31.4;;;19.6;;
61739;SDS011;47645;45.288;12.038;2022-10-18T22:12:40;50.8;;;30.2;;
61739;SDS011;47645;45.288;12.038;2022-10-18T22:22:41;40.5;;;23.6;;
61739;SDS011;47645;45.288;12.038;2022-10-18T22:32:42;78.3;;;41.6;;
61739;SDS011;47645;45.288;12.038;2022-10-18T22:42:43;44.4;;;25.8;;
61739;SDS011;47645;45.288;12.038;2022-10-18T22:52:44;45.6;;;26.3;;
61739;SDS011;47645;45.288;12.038;2022-10-18T23:02:47;38.4;;;23.0;;
61739;SDS011;47645;45.288;12.038;2022-10-18T23:12:46;28.1;;;18.2;;
61739;SDS011;47645;45.288;12.038;2022-10-18T23:22:47;41.3;;;23.3;;
61739;SDS011;47645;45.288;12.038;2022-10-18T23:32:48;37.5;;;22.5;;
61739;SDS011;47645;45.288;12.038;2022-10-18T23:42:49;33.8;;;20.2;;
61739;SDS011;47645;45.288;12.038;2022-10-18T23:52:49;45.0;;;28.9;;
